createdAt,value
2019-01-23T00:00:31.683Z,109.63
2019-01-23T00:03:00.218Z,79.00
2019-01-23T00:05:28.752Z,87.03
2019-01-23T00:07:57.240Z,76.30
2019-01-23T00:10:25.888Z,100.40
2019-01-23T00:12:54.396Z,84.93
2019-01-23T00:15:22.878Z,92.33
2019-01-23T00:17:51.363Z,102.60
2019-01-23T00:20:19.832Z,99.97
2019-01-23T00:22:48.323Z,91.50
2019-01-23T00:25:16.794Z,83.50
2019-01-23T00:27:45.292Z,84.40
2019-01-23T00:30:15.502Z,73.70
2019-01-23T00:32:44.014Z,85.57
2019-01-23T00:35:12.632Z,87.73
2019-01-23T00:37:41.130Z,73.63
2019-01-23T00:40:12.773Z,69.03
2019-01-23T00:42:41.297Z,84.77
2019-01-23T00:45:12.798Z,70.87
2019-01-23T00:47:41.290Z,76.90
2019-01-23T00:50:11.501Z,75.80
2019-01-23T00:52:39.993Z,83.13
2019-01-23T00:55:14.346Z,82.57
2019-01-23T00:57:42.836Z,82.30
2019-01-23T01:00:19.629Z,86.00
2019-01-23T01:02:48.359Z,73.30
2019-01-23T01:05:17.964Z,65.00
2019-01-23T01:07:46.546Z,74.97
2019-01-23T01:10:19.811Z,68.13
2019-01-23T01:12:48.733Z,71.07
2019-01-23T01:15:17.732Z,65.33
2019-01-23T01:17:46.308Z,82.87
2019-01-23T01:20:16.604Z,66.27
2019-01-23T01:22:45.319Z,69.57
2019-01-23T01:25:18.445Z,76.70
2019-01-23T01:27:46.940Z,72.47
2019-01-23T01:30:17.964Z,72.67
2019-01-23T01:32:46.421Z,66.07
2019-01-23T01:35:14.993Z,73.37
2019-01-23T01:37:43.531Z,70.63
2019-01-23T01:40:14.368Z,68.67
2019-01-23T01:42:42.831Z,67.10
2019-01-23T01:45:12.859Z,76.67
2019-01-23T01:47:41.396Z,74.10
2019-01-23T01:50:16.262Z,72.93
2019-01-23T01:52:44.730Z,75.20
2019-01-23T01:55:13.290Z,76.83
2019-01-23T01:57:41.850Z,76.77
2019-01-23T02:00:16.101Z,65.27
2019-01-23T02:02:44.640Z,80.73
2019-01-23T02:05:13.277Z,75.37
2019-01-23T02:07:41.803Z,70.40
2019-01-23T02:10:13.439Z,70.60
2019-01-23T02:12:41.916Z,83.77
2019-01-23T02:15:12.548Z,72.47
2019-01-23T02:17:41.040Z,69.83
2019-01-23T02:20:12.803Z,67.47
2019-01-23T02:22:41.339Z,85.03
2019-01-23T02:25:10.167Z,64.40
2019-01-23T02:27:38.972Z,61.73
2019-01-23T02:30:10.534Z,86.57
2019-01-23T02:32:38.992Z,79.37
2019-01-23T02:35:09.008Z,76.40
2019-01-23T02:37:37.481Z,68.87
2019-01-23T02:40:09.034Z,73.70
2019-01-23T02:42:37.494Z,71.13
2019-01-23T02:45:07.662Z,77.00
2019-01-23T02:47:36.124Z,68.47
2019-01-23T02:50:07.649Z,72.30
2019-01-23T02:52:36.187Z,72.80
2019-01-23T02:55:06.958Z,78.80
2019-01-23T02:57:35.506Z,65.20
2019-01-23T03:00:07.234Z,62.83
2019-01-23T03:02:35.742Z,82.80
2019-01-23T03:05:06.653Z,77.07
2019-01-23T03:07:35.130Z,68.63
2019-01-23T03:10:05.151Z,71.53
2019-01-23T03:12:33.637Z,69.30
2019-01-23T03:15:02.174Z,80.63
2019-01-23T03:17:30.617Z,73.80
2019-01-23T03:19:59.109Z,72.53
2019-01-23T03:22:27.611Z,81.47
2019-01-23T03:24:56.111Z,65.30
2019-01-23T03:27:24.572Z,74.23
2019-01-23T03:29:53.078Z,76.93
2019-01-23T03:32:21.624Z,78.87
2019-01-23T03:34:50.131Z,65.77
2019-01-23T03:37:18.608Z,77.73
2019-01-23T03:39:47.104Z,63.27
2019-01-23T03:42:15.596Z,81.30
2019-01-23T03:44:44.095Z,67.17
2019-01-23T03:47:12.579Z,79.97
2019-01-23T03:49:41.066Z,80.50
2019-01-23T03:52:09.540Z,89.57
2019-01-23T03:54:38.034Z,69.50
2019-01-23T03:57:06.519Z,88.20
2019-01-23T03:59:35.024Z,81.93
2019-01-23T04:02:03.495Z,83.57
2019-01-23T04:04:31.987Z,74.00
2019-01-23T04:07:00.466Z,74.63
2019-01-23T04:09:28.951Z,80.40
2019-01-23T04:11:57.432Z,85.23
2019-01-23T04:14:25.935Z,90.13
2019-01-23T04:16:54.408Z,69.37
2019-01-23T04:19:22.898Z,89.20
2019-01-23T04:21:51.372Z,83.50
2019-01-23T04:24:19.865Z,86.97
2019-01-23T04:26:48.332Z,95.67
2019-01-23T04:29:16.820Z,91.50
2019-01-23T04:31:45.292Z,93.97
2019-01-23T04:34:13.788Z,87.13
2019-01-23T04:36:42.261Z,93.83
2019-01-23T04:39:10.750Z,96.37
2019-01-23T04:41:39.223Z,94.70
2019-01-23T04:44:07.808Z,86.07
2019-01-23T04:46:36.864Z,98.50
2019-01-23T04:49:05.363Z,83.73
2019-01-23T04:51:47.745Z,73.20
2019-01-23T04:54:16.518Z,88.77
2019-01-23T04:56:44.977Z,78.67
2019-01-23T04:59:13.454Z,86.57
2019-01-23T05:01:41.954Z,94.97
2019-01-23T05:04:10.558Z,91.03
2019-01-23T05:06:39.049Z,85.23
2019-01-23T05:09:08.096Z,88.87
2019-01-23T05:11:36.615Z,91.00
2019-01-23T05:14:05.701Z,101.87
2019-01-23T05:16:34.210Z,89.97
2019-01-23T05:19:02.684Z,88.30
2019-01-23T05:21:31.265Z,86.60
2019-01-23T05:23:59.749Z,94.23
2019-01-23T05:26:28.248Z,86.17
2019-01-23T05:28:56.729Z,90.60
2019-01-23T05:31:25.285Z,98.70
2019-01-23T05:33:53.753Z,88.63
2019-01-23T05:36:22.328Z,105.73
2019-01-23T05:38:50.802Z,82.57
2019-01-23T05:41:19.298Z,89.77
2019-01-23T05:43:47.804Z,86.60
2019-01-23T05:46:16.309Z,85.33
2019-01-23T05:48:44.777Z,97.53
2019-01-23T05:51:13.349Z,93.27
2019-01-23T05:53:41.853Z,85.73
2019-01-23T05:56:10.365Z,85.57
2019-01-23T05:58:38.842Z,94.23
2019-01-23T06:01:08.330Z,104.23
2019-01-23T06:03:36.805Z,95.43
2019-01-23T06:06:05.302Z,94.03
2019-01-23T06:08:33.764Z,84.47
2019-01-23T06:11:02.265Z,84.03
2019-01-23T06:13:30.742Z,85.30
2019-01-23T06:15:59.242Z,107.20
2019-01-23T06:18:27.717Z,98.77
2019-01-23T06:20:56.215Z,114.67
2019-01-23T06:23:24.686Z,83.30
2019-01-23T06:25:53.182Z,80.87
2019-01-23T06:28:21.653Z,79.60
2019-01-23T06:30:50.145Z,91.53
2019-01-23T06:33:18.667Z,91.57
2019-01-23T06:35:47.163Z,89.60
2019-01-23T06:38:15.648Z,96.03
2019-01-23T06:40:44.165Z,81.37
2019-01-23T06:43:12.653Z,94.10
2019-01-23T06:45:41.144Z,95.50
2019-01-23T06:48:09.618Z,93.17
2019-01-23T06:50:38.117Z,103.90
2019-01-23T06:53:06.600Z,98.73
2019-01-23T06:55:35.104Z,93.20
2019-01-23T06:58:03.572Z,102.20
2019-01-23T07:00:32.075Z,106.13
2019-01-23T07:03:00.556Z,107.40
2019-01-23T07:05:29.223Z,98.03
2019-01-23T07:07:57.729Z,102.30
2019-01-23T07:10:26.550Z,104.13
2019-01-23T07:12:55.155Z,111.57
2019-01-23T07:15:23.706Z,117.23
2019-01-23T07:17:52.201Z,110.63
2019-01-23T07:20:27.148Z,93.57
2019-01-23T07:22:55.666Z,111.73
2019-01-23T07:25:24.620Z,105.57
2019-01-23T07:27:53.112Z,105.63
2019-01-23T07:30:29.772Z,127.00
2019-01-23T07:32:58.267Z,125.63
2019-01-23T07:35:26.738Z,100.57
2019-01-23T07:37:55.331Z,125.57
2019-01-23T07:40:23.809Z,113.57
2019-01-23T07:42:52.324Z,133.13
2019-01-23T07:45:23.628Z,124.03
2019-01-23T07:47:52.113Z,127.60
2019-01-23T07:50:20.591Z,133.37
2019-01-23T07:52:49.219Z,125.17
2019-01-23T07:55:19.440Z,125.97
2019-01-23T07:57:47.948Z,144.97
2019-01-23T08:00:19.131Z,120.97
2019-01-23T08:02:47.780Z,134.80
2019-01-23T08:05:19.703Z,135.83
2019-01-23T08:07:48.555Z,146.73
2019-01-23T08:10:19.092Z,137.67
2019-01-23T08:12:47.775Z,132.23
2019-01-23T08:15:22.265Z,138.33
2019-01-23T08:17:50.785Z,123.00
2019-01-23T08:20:21.935Z,146.57
2019-01-23T08:22:50.517Z,148.63
2019-01-23T08:25:19.167Z,141.10
2019-01-23T08:27:47.668Z,126.60
2019-01-23T08:30:18.989Z,119.53
2019-01-23T08:32:47.488Z,153.70
2019-01-23T08:35:16.800Z,158.97
2019-01-23T08:37:45.329Z,146.50
2019-01-23T08:40:15.841Z,143.03
2019-01-23T08:42:44.615Z,143.33
2019-01-23T08:45:14.431Z,137.87
2019-01-23T08:47:43.111Z,148.37
2019-01-23T08:50:20.501Z,152.07
2019-01-23T08:52:48.993Z,151.10
2019-01-23T08:55:17.463Z,168.73
2019-01-23T08:57:46.128Z,154.30
2019-01-23T09:00:17.001Z,164.17
2019-01-23T09:02:45.510Z,160.00
2019-01-23T09:05:14.522Z,178.07
2019-01-23T09:07:43.256Z,148.73
2019-01-23T09:10:20.735Z,190.00
2019-01-23T09:12:49.301Z,173.80
2019-01-23T09:15:18.321Z,174.80
2019-01-23T09:17:46.819Z,156.13
2019-01-23T09:20:19.702Z,155.97
2019-01-23T09:22:48.375Z,143.17
2019-01-23T09:25:19.657Z,164.60
2019-01-23T09:27:48.419Z,171.70
2019-01-23T09:30:31.706Z,171.03
2019-01-23T09:33:24.186Z,181.43
2019-01-23T09:36:27.601Z,175.47
2019-01-23T09:39:21.915Z,174.83
2019-01-23T09:42:08.689Z,168.83
2019-01-23T09:45:01.428Z,192.97
2019-01-23T09:47:41.907Z,198.07
2019-01-23T09:50:16.072Z,168.87
2019-01-23T09:52:53.695Z,190.93
2019-01-23T09:55:22.348Z,171.43
2019-01-23T09:57:51.887Z,170.77
2019-01-23T10:00:23.573Z,162.77
2019-01-23T10:02:52.146Z,199.60
2019-01-23T10:05:20.792Z,177.83
2019-01-23T10:07:49.305Z,200.27
2019-01-23T10:10:19.906Z,191.50
2019-01-23T10:12:48.411Z,180.13
2019-01-23T10:15:22.594Z,187.33
2019-01-23T10:17:51.085Z,182.00
2019-01-23T10:20:19.563Z,181.30
2019-01-23T10:22:48.047Z,174.67
2019-01-23T10:25:16.952Z,172.37
2019-01-23T10:27:45.552Z,168.20
2019-01-23T10:30:15.487Z,174.70
2019-01-23T10:32:44.099Z,174.80
2019-01-23T10:35:18.411Z,185.77
2019-01-23T10:37:46.867Z,184.20
2019-01-23T10:40:17.401Z,192.10
2019-01-23T10:42:46.028Z,189.27
2019-01-23T10:45:15.613Z,169.00
2019-01-23T10:47:44.717Z,174.70
2019-01-23T10:50:20.463Z,186.80
2019-01-23T10:52:48.942Z,178.23
2019-01-23T10:55:17.452Z,166.00
2019-01-23T10:57:46.068Z,181.83
2019-01-23T11:00:22.411Z,180.40
2019-01-23T11:02:50.939Z,186.97
2019-01-23T11:05:24.378Z,186.83
2019-01-23T11:07:53.020Z,193.63
2019-01-23T11:10:25.342Z,206.83
2019-01-23T11:12:53.822Z,191.83
2019-01-23T11:15:22.714Z,175.53
2019-01-23T11:17:51.270Z,197.37
2019-01-23T11:20:21.019Z,194.37
2019-01-23T11:22:50.797Z,202.17
2019-01-23T11:25:19.429Z,191.17
2019-01-23T11:27:48.494Z,171.90
2019-01-23T11:30:25.662Z,183.23
2019-01-23T11:32:54.145Z,177.27
2019-01-23T11:35:23.751Z,182.43
2019-01-23T11:37:52.415Z,184.23
2019-01-23T11:40:26.548Z,191.67
2019-01-23T11:42:55.306Z,175.60
2019-01-23T11:45:23.881Z,195.23
2019-01-23T11:47:52.505Z,184.53
2019-01-23T11:50:23.084Z,175.33
2019-01-23T11:52:52.439Z,169.23
2019-01-23T11:55:21.026Z,182.30
2019-01-23T11:57:49.506Z,189.53
2019-01-23T12:00:27.306Z,181.53
2019-01-23T12:02:55.785Z,168.73
2019-01-23T12:05:25.152Z,174.43
2019-01-23T12:07:53.770Z,181.67
2019-01-23T12:10:24.028Z,182.30
2019-01-23T12:12:52.502Z,176.77
2019-01-23T12:15:25.360Z,193.80
2019-01-23T12:17:53.844Z,198.27
2019-01-23T12:20:25.095Z,164.43
2019-01-23T12:22:53.741Z,195.07
2019-01-23T12:25:23.723Z,165.87
2019-01-23T12:27:53.130Z,175.73
2019-01-23T12:30:27.560Z,169.90
2019-01-23T12:32:58.379Z,192.93
2019-01-23T12:35:27.108Z,192.40
2019-01-23T12:37:56.923Z,181.43
2019-01-23T12:40:26.825Z,180.53
2019-01-23T12:42:55.381Z,177.70
2019-01-23T12:45:31.645Z,204.50
2019-01-23T12:48:00.122Z,165.83
2019-01-23T12:50:32.544Z,173.63
2019-01-23T12:53:01.033Z,179.13
2019-01-23T12:55:31.510Z,192.10
2019-01-23T12:58:00.857Z,183.57
2019-01-23T13:00:31.939Z,173.50
2019-01-23T13:03:00.953Z,162.90
2019-01-23T13:05:29.639Z,169.53
2019-01-23T13:07:59.128Z,172.60
2019-01-23T13:10:27.765Z,173.17
2019-01-23T13:12:56.696Z,189.93
2019-01-23T13:15:28.355Z,165.13
2019-01-23T13:17:58.185Z,192.53
2019-01-23T13:20:30.358Z,172.07
2019-01-23T13:22:59.182Z,177.63
2019-01-23T13:25:30.633Z,179.30
2019-01-23T13:28:01.068Z,165.20
2019-01-23T13:30:29.544Z,152.23
2019-01-23T13:32:59.315Z,177.20
2019-01-23T13:35:33.854Z,208.30
2019-01-23T13:38:02.817Z,159.43
2019-01-23T13:40:33.646Z,166.93
2019-01-23T13:43:03.725Z,152.30
2019-01-23T13:45:32.196Z,178.03
2019-01-23T13:48:00.752Z,174.07
2019-01-23T13:50:29.892Z,167.83
2019-01-23T13:52:58.405Z,175.47
2019-01-23T13:55:26.941Z,185.53
2019-01-23T13:57:55.556Z,167.53
2019-01-23T14:00:32.793Z,165.00
2019-01-23T14:03:01.947Z,170.33
2019-01-23T14:05:32.048Z,159.13
2019-01-23T14:08:02.186Z,154.47
2019-01-23T14:10:31.720Z,149.37
2019-01-23T14:13:00.212Z,157.27
2019-01-23T14:15:34.082Z,159.33
2019-01-23T14:18:03.509Z,149.70
2019-01-23T14:20:31.995Z,133.87
2019-01-23T14:23:00.517Z,146.60
2019-01-23T14:25:29.071Z,142.63
2019-01-23T14:28:00.419Z,146.20
2019-01-23T14:30:31.535Z,144.47
2019-01-23T14:33:00.370Z,115.73
2019-01-23T14:35:30.704Z,117.77
2019-01-23T14:38:00.796Z,133.93
2019-01-23T14:40:29.473Z,118.13
2019-01-23T14:42:58.044Z,125.40
2019-01-23T14:45:28.657Z,111.67
2019-01-23T14:47:57.500Z,113.30
2019-01-23T14:50:25.981Z,112.97
2019-01-23T14:52:54.615Z,110.77
2019-01-23T14:55:23.099Z,105.17
2019-01-23T14:57:51.649Z,118.40
2019-01-23T15:00:25.204Z,125.83
2019-01-23T15:02:53.712Z,109.90
2019-01-23T15:05:22.629Z,106.80
2019-01-23T15:07:51.139Z,121.17
2019-01-23T15:10:27.298Z,113.35
2019-01-23T15:12:55.935Z,109.30
2019-01-23T15:15:24.552Z,125.40
2019-01-23T15:17:53.696Z,116.53
2019-01-23T15:20:25.010Z,102.07
2019-01-23T15:22:53.520Z,97.23
2019-01-23T15:25:22.073Z,112.20
2019-01-23T15:27:50.556Z,99.20
2019-01-23T15:30:21.583Z,93.23
2019-01-23T15:32:50.227Z,104.37
2019-01-23T15:35:19.945Z,94.33
2019-01-23T15:37:48.437Z,82.47
2019-01-23T15:40:19.954Z,94.20
2019-01-23T15:42:48.454Z,84.37
2019-01-23T15:45:17.072Z,86.90
2019-01-23T15:47:45.577Z,75.67
2019-01-23T15:50:22.548Z,74.43
2019-01-23T15:52:51.121Z,66.10
2019-01-23T15:55:22.246Z,78.97
2019-01-23T15:57:50.827Z,88.93
2019-01-23T16:00:27.600Z,71.67
2019-01-23T16:02:56.643Z,76.63
2019-01-23T16:05:25.120Z,76.27
2019-01-23T16:07:53.680Z,69.27
2019-01-23T16:10:25.057Z,70.93
2019-01-23T16:12:53.600Z,68.93
2019-01-23T16:15:24.442Z,66.80
2019-01-23T16:17:52.958Z,76.60
2019-01-23T16:20:21.449Z,62.23
2019-01-23T16:22:49.992Z,67.60
2019-01-23T16:25:18.646Z,60.53
2019-01-23T16:27:47.190Z,63.87
2019-01-23T16:30:21.537Z,65.97
2019-01-23T16:32:50.161Z,51.80
2019-01-23T16:35:18.652Z,57.17
2019-01-23T16:37:47.126Z,55.27
2019-01-23T16:40:15.704Z,53.17
2019-01-23T16:42:44.256Z,51.70
2019-01-23T16:45:16.394Z,58.27
2019-01-23T16:47:45.749Z,52.23
2019-01-23T16:50:17.420Z,46.30
2019-01-23T16:52:45.944Z,50.00
2019-01-23T16:55:14.986Z,48.37
2019-01-23T16:57:44.699Z,53.73
2019-01-23T17:00:19.165Z,49.70
2019-01-23T17:02:47.781Z,45.17
2019-01-23T17:05:22.132Z,47.80
2019-01-23T17:07:50.669Z,47.40
2019-01-23T17:10:21.917Z,45.27
2019-01-23T17:12:50.407Z,51.03
2019-01-23T17:15:18.889Z,51.67
2019-01-23T17:17:47.366Z,46.43
2019-01-23T17:20:18.917Z,45.17
2019-01-23T17:22:47.461Z,52.30
2019-01-23T17:25:16.221Z,50.30
2019-01-23T17:27:44.825Z,45.10
2019-01-23T17:30:16.564Z,39.30
2019-01-23T17:32:45.843Z,39.67
2019-01-23T17:35:19.514Z,55.43
2019-01-23T17:37:48.083Z,44.17
2019-01-23T17:40:19.315Z,49.77
2019-01-23T17:42:48.128Z,49.47
2019-01-23T17:45:19.680Z,50.50
2019-01-23T17:47:48.225Z,53.30
2019-01-23T17:50:19.366Z,47.83
2019-01-23T17:52:47.840Z,43.40
2019-01-23T17:55:28.001Z,49.73
2019-01-23T17:57:56.647Z,41.03
2019-01-23T18:00:29.255Z,47.73
2019-01-23T18:02:58.078Z,44.13
2019-01-23T18:05:26.576Z,45.17
2019-01-23T18:07:55.507Z,45.43
2019-01-23T18:10:24.290Z,59.43
2019-01-23T18:12:52.747Z,46.50
2019-01-23T18:15:36.154Z,50.17
2019-01-23T18:18:05.471Z,40.27
2019-01-23T18:20:33.985Z,46.27
2019-01-23T18:23:02.518Z,54.73
2019-01-23T18:25:31.033Z,52.48
2019-01-23T18:27:59.498Z,46.13
2019-01-23T18:30:36.889Z,50.43
2019-01-23T18:33:08.445Z,48.40
2019-01-23T18:35:46.050Z,50.83
2019-01-23T18:38:17.577Z,44.10
2019-01-23T18:40:52.051Z,45.63
2019-01-23T18:43:38.452Z,47.10
2019-01-23T18:46:44.854Z,50.30
2019-01-23T18:49:39.175Z,51.67
2019-01-23T18:52:13.675Z,45.50
2019-01-23T18:54:43.391Z,48.13
2019-01-23T18:57:23.638Z,47.30
2019-01-23T18:59:58.958Z,54.47
2019-01-23T19:02:22.542Z,49.80
2019-01-23T19:04:51.016Z,44.50
2019-01-23T19:07:19.693Z,46.50
2019-01-23T19:09:48.297Z,53.67
2019-01-23T19:12:16.810Z,42.43
2019-01-23T19:14:45.288Z,51.13
2019-01-23T19:17:13.793Z,49.80
2019-01-23T19:19:42.252Z,47.43
2019-01-23T19:22:10.810Z,52.60
2019-01-23T19:24:39.561Z,45.33
2019-01-23T19:27:08.066Z,46.60
2019-01-23T19:29:36.541Z,51.40
2019-01-23T19:32:05.379Z,45.70
2019-01-23T19:34:33.841Z,44.00
2019-01-23T19:37:02.340Z,52.03
2019-01-23T19:39:30.818Z,48.47
2019-01-23T19:41:59.321Z,54.00
2019-01-23T19:44:27.794Z,46.37
2019-01-23T19:46:56.304Z,44.33
2019-01-23T19:49:24.858Z,52.20
2019-01-23T19:51:53.366Z,39.43
2019-01-23T19:54:21.833Z,49.53
2019-01-23T19:56:50.340Z,48.93
2019-01-23T19:59:18.815Z,59.40
2019-01-23T20:01:47.325Z,42.70
2019-01-23T20:04:15.805Z,50.03
2019-01-23T20:06:44.310Z,45.43
2019-01-23T20:09:12.945Z,47.97
2019-01-23T20:11:41.514Z,43.40
2019-01-23T20:14:10.154Z,49.27
2019-01-23T20:16:38.729Z,35.90
2019-01-23T20:19:08.856Z,43.00
2019-01-23T20:21:37.335Z,47.43
2019-01-23T20:24:05.917Z,45.93
2019-01-23T20:26:34.425Z,47.97
2019-01-23T20:29:02.914Z,47.60
2019-01-23T20:31:31.396Z,47.33
2019-01-23T20:33:59.906Z,44.10
2019-01-23T20:36:28.377Z,48.93
2019-01-23T20:38:56.874Z,46.27
2019-01-23T20:41:25.353Z,47.17
2019-01-23T20:43:53.873Z,41.43
2019-01-23T20:46:22.351Z,55.37
2019-01-23T20:48:50.861Z,45.10
2019-01-23T20:51:19.354Z,52.87
2019-01-23T20:53:47.839Z,43.07
2019-01-23T20:56:16.312Z,54.50
2019-01-23T20:58:44.807Z,47.13
2019-01-23T21:01:13.319Z,52.63
2019-01-23T21:03:41.965Z,43.40
2019-01-23T21:06:11.301Z,51.10
2019-01-23T21:08:40.569Z,45.33
2019-01-23T21:11:09.047Z,46.77
2019-01-23T21:13:37.547Z,42.60
2019-01-23T21:16:06.182Z,42.87
2019-01-23T21:18:34.718Z,44.53
2019-01-23T21:21:03.213Z,43.10
2019-01-23T21:23:31.716Z,47.67
2019-01-23T21:26:00.266Z,56.80
2019-01-23T21:28:28.771Z,44.47
2019-01-23T21:30:57.267Z,51.27
2019-01-23T21:33:25.758Z,49.47
2019-01-23T21:35:54.240Z,41.50
2019-01-23T21:38:22.744Z,43.77
2019-01-23T21:40:52.765Z,44.23
2019-01-23T21:43:21.291Z,47.07
2019-01-23T21:45:49.800Z,48.07
2019-01-23T21:48:18.308Z,50.67
2019-01-23T21:50:48.392Z,49.67
2019-01-23T21:53:16.895Z,41.13
2019-01-23T21:55:45.447Z,49.50
2019-01-23T21:58:13.943Z,39.80
2019-01-23T22:00:43.565Z,48.77
2019-01-23T22:03:12.499Z,47.50
2019-01-23T22:05:41.318Z,41.57
2019-01-23T22:08:10.082Z,44.63
2019-01-23T22:10:38.722Z,44.83
2019-01-23T22:13:07.289Z,45.33
2019-01-23T22:15:36.025Z,46.13
2019-01-23T22:18:05.363Z,52.17
2019-01-23T22:20:34.406Z,42.07
2019-01-23T22:23:02.942Z,47.27
2019-01-23T22:25:31.446Z,53.83
2019-01-23T22:27:59.926Z,44.50
2019-01-23T22:30:33.694Z,45.83
2019-01-23T22:33:02.468Z,45.50
2019-01-23T22:35:30.932Z,51.23
2019-01-23T22:37:59.543Z,44.60
2019-01-23T22:40:28.208Z,43.13
2019-01-23T22:42:56.688Z,49.07
2019-01-23T22:45:25.183Z,51.70
2019-01-23T22:47:54.924Z,47.57
2019-01-23T22:50:25.369Z,46.07
2019-01-23T22:52:54.011Z,44.50
2019-01-23T22:55:22.847Z,40.77
2019-01-23T22:57:51.405Z,54.50
2019-01-23T23:00:30.598Z,51.73
2019-01-23T23:02:59.074Z,39.90
2019-01-23T23:05:27.638Z,43.73
2019-01-23T23:07:56.135Z,44.53
2019-01-23T23:10:24.777Z,47.13
2019-01-23T23:12:53.252Z,42.77
2019-01-23T23:15:21.810Z,51.07
2019-01-23T23:17:50.289Z,43.53
2019-01-23T23:20:18.784Z,38.67
2019-01-23T23:22:47.266Z,42.07
2019-01-23T23:25:15.993Z,45.93
2019-01-23T23:27:44.475Z,51.27
2019-01-23T23:30:18.954Z,46.80
2019-01-23T23:32:47.429Z,47.60
2019-01-23T23:35:15.987Z,44.07
2019-01-23T23:37:44.539Z,45.87
2019-01-23T23:40:16.872Z,45.50
2019-01-23T23:42:45.586Z,43.53
2019-01-23T23:45:16.243Z,42.00
2019-01-23T23:47:44.923Z,49.67
2019-01-23T23:50:15.666Z,56.23
2019-01-23T23:52:44.523Z,56.33
2019-01-23T23:55:14.961Z,46.37
2019-01-23T23:57:43.742Z,46.43
